| time (UTC) | temp C | wind direction | speed KPH | gust KPH | rain 1hr cm | rain 24hr cm | rain mn cm | humidity % | barometer mb |
| 20260507164004 | 12 | 269 | 8.0 | 22.5 | 0.13 | 0.46 | 0.46 | 88 | 999.7 |
| 20260507163505 | 12 | 284 | 6.4 | 25.7 | 0.15 | 0.43 | 0.43 | 87 | 1001.1 |
| 20260507163004 | 13 | 284 | 14.5 | 25.7 | 0.15 | 0.43 | 0.43 | 85 | 1002.4 |
| 20260507162504 | 13 | 286 | 19.3 | 25.7 | 0.15 | 0.43 | 0.43 | 83 | 1002.1 |
| 20260507162004 | 13 | 280 | 8.0 | 17.7 | 0.15 | 0.43 | 0.43 | 81 | 1001.5 |
| 20260507161504 | 14 | 253 | 6.4 | 17.7 | 0.15 | 0.43 | 0.43 | 82 | 1000.8 |
| 20260507160505 | 13 | 189 | 11.3 | 17.7 | 0.15 | 0.43 | 0.43 | 83 | 999.8 |
| 20260507160005 | 13 | 177 | 6.4 | 17.7 | 0.15 | 0.43 | 0.43 | 83 | 998.6 |
| 20260507155005 | 14 | 189 | 9.7 | 24.1 | 0.13 | 0.38 | 0.38 | 80 | 999.3 |
| 20260507153505 | 16 | 281 | 6.4 | 27.4 | 0.00 | 0.28 | 0.28 | 68 | 1001.9 |
| 20260507153005 | 16 | 290 | 12.9 | 25.7 | 0.00 | 0.28 | 0.28 | 64 | 1004.0 |
| 20260507152505 | 16 | 283 | 12.9 | 25.7 | 0.00 | 0.28 | 0.28 | 61 | 1003.8 |
| 20260507152004 | 17 | 257 | 12.9 | 33.8 | 0.00 | 0.28 | 0.28 | 59 | 1002.0 |
| 20260507151505 | 17 | 232 | 11.3 | 33.8 | 0.00 | 0.28 | 0.28 | 59 | 1000.5 |
| 20260507151005 | 17 | 237 | 14.5 | 25.7 | 0.00 | 0.28 | 0.28 | 60 | 1000.2 |
| 20260507150505 | 17 | 238 | 11.3 | 32.2 | 0.00 | 0.28 | 0.28 | 62 | 1000.0 |
| 20260507150006 | 17 | 224 | 8.0 | 32.2 | 0.00 | 0.28 | 0.28 | 63 | 999.6 |
| 20260507145504 | 16 | 210 | 12.9 | 24.1 | 0.03 | 0.28 | 0.28 | 64 | 998.9 |
| 20260507145004 | 16 | 205 | 6.4 | 35.4 | 0.03 | 0.28 | 0.28 | 67 | 998.6 |
| 20260507144504 | 16 | 215 | 8.0 | 35.4 | 0.03 | 0.28 | 0.28 | 66 | 998.5 |
| 20260507143504 | 16 | 228 | 22.5 | 49.9 | 0.03 | 0.28 | 0.28 | 67 | 998.9 |
| 20260507143005 | 16 | 225 | 17.7 | 35.4 | 0.03 | 0.28 | 0.28 | 68 | 998.7 |
| 20260507142504 | 16 | 236 | 14.5 | 35.4 | 0.03 | 0.28 | 0.28 | 70 | 998.5 |
| 20260507142005 | 16 | 228 | 8.0 | 33.8 | 0.03 | 0.28 | 0.28 | 74 | 998.4 |
| 20260507141505 | 15 | 240 | 6.4 | 37.0 | 0.03 | 0.28 | 0.28 | 78 | 998.8 |
| 20260507141006 | 15 | 245 | 14.5 | 37.0 | 0.03 | 0.28 | 0.28 | 77 | 999.2 |
| 20260507140505 | 15 | 244 | 11.3 | 35.4 | 0.03 | 0.28 | 0.28 | 74 | 999.6 |
| 20260507140004 | 16 | 244 | 8.0 | 24.1 | 0.00 | 0.23 | 0.23 | 69 | 1000.1 |
| 20260507134504 | 16 | 219 | 14.5 | 35.4 | 0.00 | 0.23 | 0.23 | 63 | 1000.3 |
| 20260507134004 | 16 | 222 | 9.7 | 35.4 | 0.00 | 0.23 | 0.23 | 64 | 998.6 |
| 20260507133005 | 17 | 198 | 11.3 | 25.7 | 0.00 | 0.23 | 0.23 | 67 | 997.3 |
| 20260507132504 | 17 | 196 | 16.1 | 24.1 | 0.00 | 0.23 | 0.23 | 67 | 997.3 |
| 20260507132004 | 17 | 206 | 8.0 | 24.1 | 0.00 | 0.23 | 0.23 | 67 | 997.1 |
| 20260507131504 | 17 | 209 | 12.9 | 25.7 | 0.00 | 0.23 | 0.23 | 67 | 996.9 |
| 20260507131005 | 17 | 190 | 14.5 | 25.7 | 0.00 | 0.23 | 0.23 | 68 | 997.1 |
| 20260507125504 | 17 | 187 | 12.9 | 24.1 | 0.00 | 0.23 | 0.23 | 67 | 997.5 |
| 20260507125004 | 17 | 188 | 16.1 | 35.4 | 0.00 | 0.23 | 0.23 | 65 | 997.2 |
| 20260507124504 | 18 | 191 | 8.0 | 35.4 | 0.00 | 0.23 | 0.23 | 67 | 997.1 |
| 20260507124005 | 18 | 184 | 17.7 | 35.4 | 0.00 | 0.23 | 0.23 | 67 | 996.6 |
| 20260507123004 | 18 | 185 | 12.9 | 24.1 | 0.00 | 0.23 | 0.23 | 73 | 996.6 |
| 20260507122004 | 18 | 176 | 9.7 | 25.7 | 0.00 | 0.23 | 0.23 | 76 | 996.7 |
| 20260507121504 | 18 | 183 | 9.7 | 27.4 | 0.00 | 0.23 | 0.23 | 78 | 996.3 |
| 20260507121004 | 18 | 189 | 11.3 | 33.8 | 0.00 | 0.23 | 0.23 | 79 | 996.5 |
| 20260507120504 | 18 | 190 | 14.5 | 33.8 | 0.00 | 0.23 | 0.23 | 81 | 996.4 |
| 20260507120005 | 18 | 185 | 14.5 | 27.4 | 0.00 | 0.23 | 0.23 | 82 | 996.2 |
| 20260507115504 | 18 | 187 | 12.9 | 29.0 | 0.00 | 0.23 | 0.23 | 84 | 996.1 |
| 20260507115004 | 18 | 192 | 9.7 | 29.0 | 0.00 | 0.23 | 0.23 | 84 | 996.0 |
| 20260507114504 | 18 | 187 | 14.5 | 27.4 | 0.00 | 0.23 | 0.23 | 84 | 995.7 |
| 20260507114005 | 18 | 192 | 12.9 | 25.7 | 0.00 | 0.23 | 0.23 | 84 | 995.9 |
| 20260507113505 | 18 | 185 | 12.9 | 25.7 | 0.00 | 0.23 | 0.23 | 84 | 995.9 |
| 20260507113004 | 18 | 177 | 12.9 | 22.5 | 0.00 | 0.23 | 0.23 | 85 | 995.6 |
| 20260507112504 | 19 | 182 | 6.4 | 17.7 | 0.00 | 0.23 | 0.23 | 85 | 995.6 |
| 20260507112004 | 19 | 176 | 9.7 | 32.2 | 0.00 | 0.23 | 0.23 | 85 | 995.7 |
| 20260507111506 | 18 | 193 | 14.5 | 35.4 | 0.00 | 0.23 | 0.23 | 85 | 995.3 |
| 20260507111004 | 19 | 190 | 14.5 | 35.4 | 0.00 | 0.23 | 0.23 | 85 | 995.1 |
| 20260507110504 | 19 | 176 | 12.9 | 29.0 | 0.00 | 0.23 | 0.23 | 86 | 995.2 |
| 20260507110005 | 19 | 181 | 12.9 | 32.2 | 0.00 | 0.23 | 0.23 | 86 | 995.1 |
| 20260507105504 | 19 | 189 | 12.9 | 32.2 | 0.00 | 0.23 | 0.23 | 86 | 995.0 |
| 20260507105004 | 19 | 186 | 14.5 | 27.4 | 0.00 | 0.23 | 0.23 | 86 | 995.1 |
| 20260507104004 | 19 | 189 | 12.9 | 29.0 | 0.00 | 0.23 | 0.23 | 87 | 994.6 |
| 20260507103504 | 19 | 192 | 12.9 | 29.0 | 0.00 | 0.23 | 0.23 | 87 | 994.6 |
| 20260507103004 | 19 | 186 | 11.3 | 24.1 | 0.00 | 0.23 | 0.23 | 86 | 994.3 |
| 20260507102006 | 19 | 184 | 9.7 | 24.1 | 0.00 | 0.23 | 0.23 | 87 | 993.7 |
| 20260507101504 | 19 | 167 | 11.3 | 20.9 | 0.00 | 0.23 | 0.23 | 87 | 993.8 |
| 20260507101005 | 19 | 177 | 9.7 | 25.7 | 0.00 | 0.23 | 0.23 | 87 | 994.0 |
| 20260507100504 | 19 | 184 | 11.3 | 32.2 | 0.03 | 0.23 | 0.23 | 87 | 993.7 |
| 20260507100005 | 19 | 186 | 14.5 | 32.2 | 0.03 | 0.23 | 0.23 | 87 | 993.5 |
| 20260507095504 | 19 | 201 | 9.7 | 22.5 | 0.03 | 0.23 | 0.23 | 87 | 993.3 |
| 20260507095005 | 20 | 204 | 12.9 | 24.1 | 0.03 | 0.23 | 0.23 | 86 | 993.0 |
| 20260507094505 | 20 | 199 | 6.4 | 27.4 | 0.03 | 0.23 | 0.23 | 87 | 993.1 |
| 20260507093504 | 20 | 192 | 9.7 | 27.4 | 0.03 | 0.23 | 0.23 | 88 | 992.5 |
| 20260507093004 | 20 | 185 | 17.7 | 32.2 | 0.03 | 0.23 | 0.23 | 88 | 992.4 |
| 20260507092505 | 20 | 198 | 6.4 | 32.2 | 0.03 | 0.23 | 0.23 | 88 | 992.2 |
| 20260507092004 | 20 | 214 | 12.9 | 25.7 | 0.03 | 0.23 | 0.23 | 88 | 992.3 |
| 20260507091504 | 20 | 216 | 9.7 | 24.1 | 0.03 | 0.23 | 0.23 | 88 | 992.1 |
| 20260507091004 | 20 | 206 | 12.9 | 24.1 | 0.03 | 0.23 | 0.23 | 88 | 991.9 |
| 20260507090505 | 20 | 190 | 8.0 | 24.1 | 0.00 | 0.20 | 0.20 | 89 | 992.3 |
| 20260507090006 | 20 | 194 | 11.3 | 24.1 | 0.00 | 0.20 | 0.20 | 89 | 992.2 |
| 20260507085505 | 20 | 204 | 6.4 | 17.7 | 0.00 | 0.20 | 0.20 | 89 | 992.9 |
| 20260507085005 | 19 | 212 | 6.4 | 17.7 | 0.00 | 0.20 | 0.20 | 89 | 993.0 |
| 20260507084005 | 19 | 189 | 6.4 | 17.7 | 0.10 | 0.20 | 0.20 | 90 | 993.3 |
| 20260507083505 | 19 | 202 | 6.4 | 17.7 | 0.10 | 0.20 | 0.20 | 90 | 992.5 |
| 20260507083004 | 19 | 207 | 9.7 | 20.9 | 0.10 | 0.20 | 0.20 | 90 | 992.3 |
| 20260507082504 | 19 | 189 | 3.2 | 22.5 | 0.13 | 0.20 | 0.20 | 89 | 992.7 |
| 20260507082005 | 19 | 186 | 6.4 | 22.5 | 0.15 | 0.20 | 0.20 | 89 | 992.8 |
| 20260507081505 | 19 | 183 | 8.0 | 20.9 | 0.20 | 0.20 | 0.20 | 90 | 992.8 |
| 20260507081005 | 19 | 183 | 8.0 | 17.7 | 0.20 | 0.20 | 0.20 | 90 | 992.8 |
| 20260507080504 | 19 | 191 | 6.4 | 12.9 | 0.20 | 0.20 | 0.20 | 91 | 992.9 |
| 20260507080005 | 19 | 188 | 4.8 | 11.3 | 0.20 | 0.20 | 0.20 | 91 | 993.2 |
| 20260507075504 | 19 | 167 | 6.4 | 11.3 | 0.20 | 0.20 | 0.20 | 90 | 993.1 |
| 20260507075005 | 20 | 155 | 6.4 | 11.3 | 0.20 | 0.20 | 0.20 | 90 | 993.2 |
| 20260507074505 | 20 | 148 | 8.0 | 11.3 | 0.13 | 0.13 | 0.13 | 90 | 993.1 |
| 20260507074005 | 20 | 149 | 3.2 | 11.3 | 0.13 | 0.13 | 0.13 | 90 | 993.6 |
| 20260507073504 | 20 | 163 | 3.2 | 12.9 | 0.13 | 0.13 | 0.13 | 89 | 993.3 |
| 20260507073004 | 20 | 165 | 3.2 | 17.7 | 0.13 | 0.13 | 0.13 | 87 | 993.2 |
| 20260507072504 | 20 | 158 | 6.4 | 17.7 | 0.10 | 0.10 | 0.10 | 85 | 993.6 |
| 20260507072005 | 21 | 152 | 9.7 | 12.9 | 0.05 | 0.05 | 0.05 | 81 | 993.7 |
| 20260507071504 | 22 | 166 | 4.8 | 17.7 | 0.00 | 0.00 | 0.00 | 79 | 993.5 |
| 20260507071005 | 22 | 176 | 8.0 | 17.7 | 0.00 | 0.00 | 0.00 | 79 | 993.7 |
| 20260507070505 | 22 | 169 | 6.4 | 20.9 | 0.00 | 0.00 | 0.00 | 81 | 993.4 |
| 20260507070009 | 22 | 157 | 8.0 | 20.9 | 0.00 | 0.00 | 0.00 | 82 | 993.1 |
| 20260507065504 | 22 | 156 | 6.4 | 20.9 | 0.00 | 0.00 | 0.00 | 83 | 993.2 |
| 20260507065004 | 23 | 173 | 6.4 | 12.9 | 0.00 | 0.00 | 0.00 | 87 | 993.3 |
| 20260507064505 | 23 | 225 | 1.6 | 11.3 | 0.00 | 0.00 | 0.00 | 87 | 993.1 |
| 20260507064005 | 23 | 235 | 6.4 | 12.9 | 0.00 | 0.00 | 0.00 | 87 | 993.3 |
| 20260507063504 | 23 | 234 | 6.4 | 12.9 | 0.00 | 0.00 | 0.00 | 88 | 993.2 |
| 20260507063004 | 23 | 350 | 1.6 | 6.4 | 0.00 | 0.00 | 0.00 | 87 | 992.9 |
| 20260507062505 | 23 | 346 | 3.2 | 6.4 | 0.00 | 0.00 | 0.00 | 87 | 992.4 |
| 20260507062005 | 23 | 350 | 3.2 | 9.7 | 0.00 | 0.00 | 0.00 | 87 | 992.4 |
| 20260507061504 | 23 | 5 | 3.2 | 9.7 | 0.00 | 0.00 | 0.00 | 87 | 992.5 |
| 20260507061004 | 23 | 2 | 3.2 | 9.7 | 0.00 | 0.00 | 0.00 | 87 | 992.6 |
| 20260507055504 | 23 | 316 | 3.2 | 9.7 | 0.00 | 0.00 | 0.00 | 86 | 992.4 |
| 20260507055005 | 23 | 323 | 3.2 | 6.4 | 0.00 | 0.00 | 0.00 | 86 | 992.8 |
| 20260507054505 | 23 | 324 | 3.2 | 6.4 | 0.00 | 0.00 | 0.00 | 86 | 992.8 |
| 20260507053504 | 23 | 312 | 6.4 | 6.4 | 0.00 | 0.00 | 0.00 | 86 | 993.2 |
| 20260507053005 | 23 | 318 | 3.2 | 9.7 | 0.00 | 0.00 | 0.00 | 86 | 993.2 |
| 20260507052504 | 23 | 327 | 4.8 | 9.7 | 0.00 | 0.00 | 0.00 | 86 | 993.3 |
| 20260507052004 | 23 | 330 | 4.8 | 11.3 | 0.00 | 0.00 | 0.00 | 86 | 993.5 |
| 20260507051505 | 23 | 339 | 4.8 | 11.3 | 0.00 | 0.00 | 0.00 | 85 | 993.2 |
| 20260507050505 | 24 | 352 | 4.8 | 11.3 | 0.00 | 0.00 | 0.00 | 85 | 993.1 |
| 20260507050005 | 24 | 359 | 4.8 | 11.3 | 0.00 | 0.00 | 0.00 | 84 | 993.2 |
| 20260507045505 | 24 | 358 | 3.2 | 11.3 | 0.00 | 0.00 | 0.00 | 84 | 993.0 |
| 20260507045005 | 24 | 354 | 3.2 | 12.9 | 0.00 | 0.00 | 0.00 | 84 | 993.0 |
| 20260507044505 | 24 | 347 | 6.4 | 12.9 | 0.00 | 0.00 | 0.00 | 84 | 992.9 |
| 20260507044004 | 24 | 343 | 3.2 | 12.9 | 0.00 | 0.00 | 0.00 | 83 | 993.1 |
| 20260507043504 | 24 | 348 | 6.4 | 12.9 | 0.00 | 0.00 | 0.00 | 84 | 993.2 |
| 20260507042504 | 24 | 346 | 6.4 | 12.9 | 0.00 | 0.00 | 0.00 | 83 | 993.0 |
| 20260507042004 | 24 | 344 | 6.4 | 12.9 | 0.00 | 0.00 | 0.00 | 83 | 993.1 |
| 20260507041504 | 24 | 339 | 6.4 | 12.9 | 0.00 | 0.00 | 0.00 | 83 | 993.1 |
| 20260507041005 | 25 | 344 | 6.4 | 12.9 | 0.00 | 0.00 | 0.00 | 82 | 993.1 |
| 20260507040005 | 25 | 348 | 3.2 | 11.3 | 0.00 | 0.00 | 0.00 | 81 | 993.2 |
| 20260507035004 | 25 | 353 | 4.8 | 12.9 | 0.00 | 0.00 | 0.00 | 80 | 993.3 |
| 20260507034505 | 25 | 355 | 6.4 | 17.7 | 0.00 | 0.00 | 0.00 | 80 | 993.5 |
| 20260507033504 | 25 | 353 | 6.4 | 14.5 | 0.00 | 0.00 | 0.00 | 81 | 993.7 |
| 20260507033005 | 25 | 2 | 8.0 | 12.9 | 0.00 | 0.00 | 0.00 | 82 | 993.3 |
| 20260507032505 | 25 | 351 | 6.4 | 11.3 | 0.00 | 0.00 | 0.00 | 82 | 993.6 |
| 20260507032004 | 25 | 351 | 4.8 | 11.3 | 0.00 | 0.00 | 0.00 | 81 | 993.6 |
| 20260507031505 | 25 | 347 | 3.2 | 6.4 | 0.00 | 0.00 | 0.00 | 81 | 993.7 |
| 20260507031005 | 25 | 343 | 4.8 | 9.7 | 0.00 | 0.00 | 0.00 | 81 | 993.8 |
| 20260507030504 | 25 | 353 | 4.8 | 9.7 | 0.00 | 0.00 | 0.00 | 81 | 993.8 |
| 20260507030005 | 25 | 8 | 6.4 | 9.7 | 0.00 | 0.00 | 0.00 | 81 | 993.9 |
| 20260507025504 | 25 | 9 | 3.2 | 6.4 | 0.00 | 0.00 | 0.00 | 80 | 993.8 |
| 20260507025005 | 25 | 356 | 3.2 | 6.4 | 0.00 | 0.00 | 0.00 | 80 | 993.9 |
| 20260507024005 | 25 | 351 | 1.6 | 6.4 | 0.00 | 0.00 | 0.00 | 80 | 994.1 |
| 20260507023505 | 25 | 346 | 1.6 | 6.4 | 0.00 | 0.00 | 0.00 | 80 | 994.0 |
| 20260507023004 | 25 | 352 | 6.4 | 6.4 | 0.00 | 0.00 | 0.00 | 79 | 993.9 |
| 20260507022504 | 25 | 353 | 4.8 | 6.4 | 0.00 | 0.00 | 0.00 | 79 | 994.2 |
| 20260507022005 | 25 | 344 | 3.2 | 6.4 | 0.00 | 0.00 | 0.00 | 79 | 994.0 |
| 20260507020005 | 25 | 343 | 4.8 | 6.4 | 0.00 | 0.00 | 0.00 | 79 | 994.1 |
| 20260507015505 | 25 | 348 | 3.2 | 6.4 | 0.00 | 0.00 | 0.00 | 79 | 994.2 |
| 20260507015004 | 25 | 355 | 3.2 | 6.4 | 0.00 | 0.00 | 0.00 | 80 | 993.9 |
| 20260507014504 | 25 | 356 | 3.2 | 6.4 | 0.00 | 0.00 | 0.00 | 80 | 993.9 |
| 20260507014005 | 25 | 354 | 3.2 | 9.7 | 0.00 | 0.00 | 0.00 | 80 | 993.9 |
| 20260507013505 | 25 | 354 | 3.2 | 9.7 | 0.00 | 0.00 | 0.00 | 80 | 993.6 |
| 20260507013004 | 25 | 11 | 3.2 | 9.7 | 0.00 | 0.00 | 0.00 | 80 | 993.6 |
| 20260507012504 | 25 | 17 | 3.2 | 9.7 | 0.00 | 0.00 | 0.00 | 79 | 993.3 |
| 20260507012005 | 25 | 8 | 3.2 | 11.3 | 0.00 | 0.00 | 0.00 | 79 | 993.4 |
| 20260507011504 | 25 | 354 | 3.2 | 11.3 | 0.00 | 0.00 | 0.00 | 79 | 993.2 |
| 20260507011004 | 25 | 352 | 4.8 | 11.3 | 0.00 | 0.00 | 0.00 | 79 | 993.4 |
| 20260507010504 | 25 | 2 | 4.8 | 9.7 | 0.00 | 0.00 | 0.00 | 79 | 993.3 |
| 20260507005005 | 25 | 6 | 3.2 | 12.9 | 0.00 | 0.00 | 0.00 | 78 | 993.5 |
| 20260507004504 | 25 | 343 | 8.0 | 12.9 | 0.00 | 0.00 | 0.00 | 78 | 993.4 |
| 20260507004004 | 25 | 339 | 3.2 | 12.9 | 0.00 | 0.00 | 0.00 | 77 | 993.4 |
| 20260507003505 | 25 | 356 | 4.8 | 14.5 | 0.00 | 0.00 | 0.00 | 77 | 993.4 |
| 20260507002005 | 26 | 1 | 6.4 | 17.7 | 0.00 | 0.00 | 0.00 | 76 | 993.5 |
| 20260507001504 | 26 | 352 | 4.8 | 17.7 | 0.00 | 0.00 | 0.00 | 76 | 993.2 |
| 20260507001004 | 26 | 12 | 4.8 | 17.7 | 0.00 | 0.00 | 0.00 | 76 | 993.6 |
| 20260507000505 | 26 | 14 | 3.2 | 17.7 | 0.00 | 0.00 | 0.00 | 75 | 993.5 |
| 20260507000005 | 26 | 3 | 3.2 | 9.7 | 0.00 | 0.00 | 0.00 | 75 | 993.6 |
| 20260506235504 | 26 | 359 | 4.8 | 9.7 | 0.00 | 0.00 | 0.00 | 74 | 993.8 |
| 20260506235004 | 26 | 346 | 4.8 | 14.5 | 0.00 | 0.00 | 0.00 | 74 | 993.6 |
| 20260506234504 | 27 | 337 | 3.2 | 14.5 | 0.00 | 0.00 | 0.00 | 73 | 993.8 |
| 20260506233504 | 27 | 349 | 4.8 | 24.1 | 0.00 | 0.00 | 0.00 | 72 | 993.6 |
| 20260506233005 | 27 | 352 | 6.4 | 24.1 | 0.00 | 0.00 | 0.00 | 71 | 993.7 |
| 20260506232505 | 27 | 344 | 8.0 | 22.5 | 0.00 | 0.00 | 0.00 | 71 | 993.6 |
| 20260506232004 | 27 | 345 | 11.3 | 22.5 | 0.00 | 0.00 | 0.00 | 71 | 993.4 |
| 20260506231504 | 27 | 349 | 6.4 | 24.1 | 0.00 | 0.00 | 0.00 | 70 | 993.3 |
| 20260506231005 | 27 | 335 | 9.7 | 27.4 | 0.00 | 0.00 | 0.00 | 69 | 993.2 |
| 20260506230505 | 27 | 338 | 12.9 | 27.4 | 0.00 | 0.00 | 0.00 | 69 | 993.2 |
| 20260506230004 | 27 | 351 | 12.9 | 25.7 | 0.00 | 0.00 | 0.00 | 69 | 993.3 |
| 20260506225504 | 27 | 359 | 11.3 | 25.7 | 0.00 | 0.00 | 0.00 | 70 | 993.3 |
| 20260506225004 | 27 | 354 | 11.3 | 22.5 | 0.00 | 0.00 | 0.00 | 70 | 993.2 |
| 20260506224505 | 27 | 352 | 6.4 | 22.5 | 0.00 | 0.00 | 0.00 | 71 | 993.4 |
| 20260506224004 | 27 | 359 | 12.9 | 22.5 | 0.00 | 0.00 | 0.00 | 71 | 993.5 |
| 20260506222504 | 27 | 351 | 6.4 | 17.7 | 0.00 | 0.00 | 0.00 | 71 | 993.6 |
| 20260506222004 | 27 | 358 | 6.4 | 17.7 | 0.00 | 0.00 | 0.00 | 71 | 993.9 |
| 20260506221504 | 28 | 353 | 6.4 | 17.7 | 0.00 | 0.00 | 0.00 | 70 | 993.9 |
| 20260506221005 | 28 | 349 | 6.4 | 17.7 | 0.00 | 0.00 | 0.00 | 70 | 993.8 |
| 20260506220504 | 28 | 5 | 4.8 | 14.5 | 0.00 | 0.00 | 0.00 | 70 | 993.7 |
| 20260506220004 | 28 | 14 | 4.8 | 11.3 | 0.00 | 0.00 | 0.00 | 70 | 993.9 |
| 20260506215504 | 28 | 5 | 3.2 | 11.3 | 0.00 | 0.00 | 0.00 | 69 | 993.8 |
| 20260506215006 | 28 | 3 | 4.8 | 9.7 | 0.00 | 0.00 | 0.00 | 69 | 993.9 |
| 20260506213504 | 29 | 352 | 3.2 | 14.5 | 0.00 | 0.00 | 0.00 | 68 | 994.0 |
| 20260506213004 | 29 | 342 | 6.4 | 14.5 | 0.00 | 0.00 | 0.00 | 67 | 994.1 |
| 20260506212504 | 29 | 345 | 6.4 | 14.5 | 0.00 | 0.00 | 0.00 | 67 | 994.1 |
| 20260506212005 | 29 | 351 | 6.4 | 14.5 | 0.00 | 0.00 | 0.00 | 66 | 993.9 |
| 20260506211004 | 29 | 348 | 6.4 | 25.7 | 0.00 | 0.00 | 0.00 | 65 | 993.7 |
| 20260506210504 | 30 | 349 | 12.9 | 25.7 | 0.00 | 0.00 | 0.00 | 65 | 993.5 |
| 20260506205505 | 30 | 341 | 6.4 | 24.1 | 0.00 | 0.00 | 0.00 | 64 | 993.9 |
| 20260506205004 | 30 | 350 | 9.7 | 24.1 | 0.00 | 0.00 | 0.00 | 63 | 993.7 |
| 20260506204504 | 30 | 355 | 6.4 | 24.1 | 0.00 | 0.00 | 0.00 | 63 | 993.8 |
| 20260506204005 | 30 | 352 | 4.8 | 22.5 | 0.00 | 0.00 | 0.00 | 63 | 994.0 |
| 20260506203504 | 30 | 353 | 9.7 | 24.1 | 0.00 | 0.00 | 0.00 | 63 | 994.0 |
| 20260506203004 | 30 | 356 | 12.9 | 24.1 | 0.00 | 0.00 | 0.00 | 62 | 994.1 |
| 20260506202505 | 30 | 352 | 12.9 | 22.5 | 0.00 | 0.00 | 0.00 | 62 | 994.0 |
| 20260506202004 | 30 | 340 | 12.9 | 24.1 | 0.00 | 0.00 | 0.00 | 62 | 994.0 |
| 20260506201504 | 30 | 343 | 14.5 | 27.4 | 0.00 | 0.00 | 0.00 | 62 | 994.3 |
| 20260506201005 | 31 | 351 | 16.1 | 27.4 | 0.00 | 0.00 | 0.00 | 62 | 994.1 |
| 20260506200505 | 31 | 342 | 12.9 | 22.5 | 0.00 | 0.00 | 0.00 | 62 | 994.2 |
| 20260506200005 | 31 | 344 | 9.7 | 25.7 | 0.00 | 0.00 | 0.00 | 62 | 994.3 |
| 20260506195504 | 31 | 346 | 8.0 | 25.7 | 0.00 | 0.00 | 0.00 | 62 | 994.3 |
| 20260506195004 | 31 | 353 | 6.4 | 25.7 | 0.00 | 0.00 | 0.00 | 62 | 994.2 |
| 20260506194004 | 31 | 350 | 8.0 | 24.1 | 0.00 | 0.00 | 0.00 | 61 | 994.4 |
| 20260506193504 | 31 | 348 | 8.0 | 25.7 | 0.00 | 0.00 | 0.00 | 61 | 994.4 |
| 20260506193005 | 31 | 338 | 9.7 | 25.7 | 0.00 | 0.00 | 0.00 | 61 | 994.3 |
| 20260506192504 | 31 | 342 | 12.9 | 24.1 | 0.00 | 0.00 | 0.00 | 61 | 994.4 |
| 20260506192004 | 31 | 340 | 11.3 | 22.5 | 0.00 | 0.00 | 0.00 | 61 | 994.4 |
| 20260506191505 | 31 | 347 | 12.9 | 22.5 | 0.00 | 0.00 | 0.00 | 61 | 994.2 |
| 20260506191004 | 31 | 345 | 6.4 | 25.7 | 0.00 | 0.00 | 0.00 | 61 | 994.4 |
| 20260506190006 | 31 | 348 | 17.7 | 29.0 | 0.00 | 0.00 | 0.00 | 62 | 994.6 |
| 20260506185504 | 30 | 359 | 9.7 | 27.4 | 0.00 | 0.00 | 0.00 | 62 | 994.6 |
| 20260506185004 | 31 | 352 | 16.1 | 27.4 | 0.00 | 0.00 | 0.00 | 61 | 994.7 |
| 20260506184504 | 31 | 343 | 17.7 | 25.7 | 0.00 | 0.00 | 0.00 | 61 | 994.7 |
| 20260506184005 | 31 | 345 | 6.4 | 25.7 | 0.00 | 0.00 | 0.00 | 60 | 994.7 |
| 20260506183504 | 31 | 346 | 16.1 | 27.4 | 0.00 | 0.00 | 0.00 | 61 | 994.8 |
| 20260506182505 | 30 | 345 | 17.7 | 27.4 | 0.00 | 0.00 | 0.00 | 62 | 995.0 |
| 20260506182004 | 30 | 354 | 16.1 | 27.4 | 0.00 | 0.00 | 0.00 | 61 | 994.9 |
| 20260506181504 | 30 | 358 | 12.9 | 27.4 | 0.00 | 0.00 | 0.00 | 62 | 995.1 |
| 20260506181005 | 30 | 342 | 6.4 | 35.4 | 0.00 | 0.00 | 0.00 | 62 | 995.2 |
| 20260506180505 | 30 | 347 | 16.1 | 35.4 | 0.00 | 0.00 | 0.00 | 61 | 995.2 |
| 20260506175505 | 30 | 347 | 11.3 | 25.7 | 0.00 | 0.00 | 0.00 | 62 | 995.1 |
| 20260506175005 | 30 | 352 | 11.3 | 27.4 | 0.00 | 0.00 | 0.00 | 63 | 995.3 |
| 20260506174504 | 30 | 355 | 6.4 | 29.0 | 0.00 | 0.00 | 0.00 | 62 | 995.3 |
| 20260506173505 | 30 | 338 | 12.9 | 33.8 | 0.00 | 0.00 | 0.00 | 61 | 995.7 |
| 20260506173004 | 31 | 332 | 11.3 | 33.8 | 0.00 | 0.00 | 0.00 | 61 | 995.6 |
| 20260506172504 | 31 | 353 | 11.3 | 27.4 | 0.00 | 0.00 | 0.00 | 59 | 995.8 |
| 20260506172004 | 31 | 7 | 17.7 | 27.4 | 0.00 | 0.00 | 0.00 | 60 | 996.0 |
| 20260506171505 | 31 | 1 | 9.7 | 25.7 | 0.00 | 0.00 | 0.00 | 61 | 995.9 |
| 20260506170504 | 31 | 6 | 14.5 | 32.2 | 0.00 | 0.00 | 0.00 | 60 | 996.3 |
| 20260506170005 | 31 | 14 | 12.9 | 32.2 | 0.00 | 0.00 | 0.00 | 60 | 996.2 |
| 20260506165505 | 31 | 353 | 6.4 | 20.9 | 0.00 | 0.00 | 0.00 | 62 | 996.2 |
| 20260506165005 | 31 | 345 | 9.7 | 25.7 | 0.00 | 0.00 | 0.00 | 62 | 996.4 |